createdAt,value
2023-01-17T00:01:16.630Z,2.90
2023-01-17T00:04:02.004Z,2.90
2023-01-17T00:06:47.187Z,2.90
2023-01-17T00:09:33.746Z,2.90
2023-01-17T00:12:02.166Z,2.90
2023-01-17T00:14:28.988Z,2.80
2023-01-17T00:16:55.633Z,2.90
2023-01-17T00:19:40.923Z,3.00
2023-01-17T00:22:55.785Z,3.00
2023-01-17T00:25:51.092Z,3.00
2023-01-17T00:28:17.773Z,2.90
2023-01-17T00:30:45.467Z,2.90
2023-01-17T00:33:12.581Z,2.90
2023-01-17T00:35:39.235Z,2.80
2023-01-17T00:38:11.799Z,2.90
2023-01-17T00:40:40.073Z,3.00
2023-01-17T00:43:26.144Z,2.90
2023-01-17T00:46:12.169Z,2.90
2023-01-17T00:48:58.282Z,2.90
2023-01-17T00:51:44.654Z,3.00
2023-01-17T00:54:30.519Z,2.90
2023-01-17T00:57:15.993Z,2.80
2023-01-17T01:00:01.499Z,2.70
2023-01-17T01:02:47.725Z,2.90
2023-01-17T01:05:34.048Z,3.10
2023-01-17T01:08:19.809Z,3.00
2023-01-17T01:11:06.836Z,3.00
2023-01-17T01:13:52.989Z,2.90
2023-01-17T01:16:38.522Z,2.90
2023-01-17T01:19:24.628Z,2.90
2023-01-17T01:22:10.152Z,3.00
2023-01-17T01:24:55.597Z,3.00
2023-01-17T01:27:40.987Z,3.00
2023-01-17T01:30:26.943Z,2.80
2023-01-17T01:33:12.316Z,2.80
2023-01-17T01:35:38.980Z,2.70
2023-01-17T01:38:05.605Z,2.60
2023-01-17T01:40:32.280Z,2.60
2023-01-17T01:43:00.373Z,2.70
2023-01-17T01:45:29.627Z,2.70
2023-01-17T01:48:13.856Z,2.60
2023-01-17T01:50:40.608Z,2.60
2023-01-17T01:53:08.172Z,2.60
2023-01-17T01:55:40.337Z,2.70
2023-01-17T01:58:18.466Z,3.00
2023-01-17T02:00:45.252Z,3.10
2023-01-17T02:03:17.320Z,3.00
2023-01-17T02:05:44.460Z,3.10
2023-01-17T02:08:15.310Z,2.70
2023-01-17T02:10:43.917Z,2.80
2023-01-17T02:13:11.778Z,2.80
2023-01-17T02:15:47.416Z,2.70
2023-01-17T02:18:52.201Z,2.60
2023-01-17T02:21:32.249Z,2.50
2023-01-17T02:24:40.828Z,2.50
2023-01-17T02:27:17.798Z,2.60
2023-01-17T02:30:06.155Z,2.60
2023-01-17T02:32:56.185Z,2.70
2023-01-17T02:35:48.556Z,2.70
2023-01-17T02:38:31.214Z,2.60
2023-01-17T02:41:07.685Z,2.40
2023-01-17T02:43:35.879Z,2.20
2023-01-17T02:46:02.617Z,2.20
2023-01-17T02:48:32.808Z,2.20
2023-01-17T02:51:33.069Z,2.20
2023-01-17T02:54:13.823Z,2.20
2023-01-17T02:57:03.428Z,2.20
2023-01-17T02:59:57.799Z,2.20
2023-01-17T03:02:46.113Z,2.40
2023-01-17T03:05:27.628Z,2.30
2023-01-17T03:07:54.866Z,2.40
2023-01-17T03:10:22.619Z,2.40
2023-01-17T03:12:50.080Z,2.40
2023-01-17T03:15:17.900Z,2.30
2023-01-17T03:17:49.076Z,2.30
2023-01-17T03:20:16.147Z,2.20
2023-01-17T03:22:42.852Z,2.00
2023-01-17T03:25:09.710Z,2.10
2023-01-17T03:27:36.566Z,2.10
2023-01-17T03:30:04.519Z,2.00
2023-01-17T03:32:31.174Z,2.10
2023-01-17T03:34:57.889Z,2.20
2023-01-17T03:37:24.565Z,2.30
2023-01-17T03:39:51.195Z,2.30
2023-01-17T03:42:17.892Z,2.40
2023-01-17T03:44:44.560Z,2.50
2023-01-17T03:47:12.161Z,2.50
2023-01-17T03:49:39.787Z,2.50
2023-01-17T03:52:07.306Z,2.50
2023-01-17T03:54:34.230Z,2.60
2023-01-17T03:57:00.930Z,2.40
2023-01-17T03:59:27.586Z,2.50
2023-01-17T04:01:54.247Z,2.50
2023-01-17T04:04:21.079Z,2.50
2023-01-17T04:06:48.222Z,2.30
2023-01-17T04:09:15.038Z,2.30
2023-01-17T04:11:41.657Z,2.20
2023-01-17T04:14:08.334Z,2.10
2023-01-17T04:16:36.466Z,2.10
2023-01-17T04:19:03.183Z,2.10
2023-01-17T04:21:29.844Z,2.10
2023-01-17T04:23:56.562Z,2.30
2023-01-17T04:26:23.179Z,2.30
2023-01-17T04:28:49.819Z,2.30
2023-01-17T04:31:17.523Z,2.40
2023-01-17T04:33:44.323Z,2.50
2023-01-17T04:36:11.062Z,2.50
2023-01-17T04:38:37.714Z,2.60
2023-01-17T04:41:04.502Z,2.70
2023-01-17T04:43:31.221Z,2.70
2023-01-17T04:45:58.684Z,2.60
2023-01-17T04:48:26.117Z,2.60
2023-01-17T04:51:00.301Z,2.70
2023-01-17T04:53:27.028Z,2.70
2023-01-17T04:55:53.794Z,2.70
2023-01-17T04:58:20.418Z,2.80
2023-01-17T05:00:50.744Z,2.80
2023-01-17T05:03:18.966Z,2.80
2023-01-17T05:05:46.092Z,2.80
2023-01-17T05:08:13.125Z,2.80
2023-01-17T05:10:40.023Z,2.80
2023-01-17T05:13:07.035Z,2.80
2023-01-17T05:15:33.721Z,2.70
2023-01-17T05:18:00.386Z,2.70
2023-01-17T05:20:27.700Z,2.90
2023-01-17T05:22:56.427Z,2.90
2023-01-17T05:25:24.718Z,2.80
2023-01-17T05:27:51.765Z,2.80
2023-01-17T05:30:19.105Z,2.70
2023-01-17T05:32:52.815Z,2.60
2023-01-17T05:35:22.401Z,2.60
2023-01-17T05:37:50.570Z,2.70
2023-01-17T05:40:22.212Z,2.70
2023-01-17T05:42:50.337Z,2.80
2023-01-17T05:45:18.438Z,2.80
2023-01-17T05:47:46.459Z,2.90
2023-01-17T05:50:15.332Z,2.90
2023-01-17T05:52:42.536Z,2.90
2023-01-17T05:55:09.543Z,2.90
2023-01-17T05:57:36.167Z,2.80
2023-01-17T06:00:03.260Z,2.90
2023-01-17T06:02:31.519Z,2.90
2023-01-17T06:04:58.218Z,2.90
2023-01-17T06:07:24.859Z,2.90
2023-01-17T06:09:51.465Z,2.90
2023-01-17T06:12:18.121Z,2.80
2023-01-17T06:14:44.809Z,2.80
2023-01-17T06:17:11.451Z,2.70
2023-01-17T06:19:38.128Z,2.60
2023-01-17T06:22:05.197Z,2.50
2023-01-17T06:24:31.878Z,2.50
2023-01-17T06:26:58.489Z,2.50
2023-01-17T06:29:25.164Z,2.40
2023-01-17T06:31:52.014Z,2.20
2023-01-17T06:34:18.826Z,2.30
2023-01-17T06:36:45.496Z,2.20
2023-01-17T06:39:14.869Z,2.20
2023-01-17T06:41:41.760Z,2.20
2023-01-17T06:44:09.858Z,2.10
2023-01-17T06:46:36.530Z,2.00
2023-01-17T06:49:03.402Z,2.10
2023-01-17T06:51:30.059Z,2.20
2023-01-17T06:53:56.722Z,2.20
2023-01-17T06:56:23.413Z,2.20
2023-01-17T06:58:51.199Z,2.20
2023-01-17T07:01:18.952Z,2.10
2023-01-17T07:03:46.040Z,2.10
2023-01-17T07:06:12.753Z,2.10
2023-01-17T07:08:39.931Z,2.10
2023-01-17T07:11:08.033Z,2.10
2023-01-17T07:13:36.501Z,2.10
2023-01-17T07:16:04.476Z,2.10
2023-01-17T07:18:32.207Z,2.00
2023-01-17T07:20:59.197Z,2.00
2023-01-17T07:23:26.024Z,1.90
2023-01-17T07:25:53.245Z,1.80
2023-01-17T07:28:19.966Z,1.70
2023-01-17T07:30:46.906Z,1.60
2023-01-17T07:33:13.622Z,1.60
2023-01-17T07:35:40.587Z,1.60
2023-01-17T07:38:11.408Z,1.60
2023-01-17T07:40:42.057Z,1.60
2023-01-17T07:43:15.593Z,1.50
2023-01-17T07:45:49.432Z,1.50
2023-01-17T07:48:17.205Z,1.60
2023-01-17T07:50:44.127Z,1.60
2023-01-17T07:53:10.958Z,1.70
2023-01-17T07:55:37.689Z,1.80
2023-01-17T07:58:04.342Z,1.80
2023-01-17T08:00:31.111Z,1.80
2023-01-17T08:02:59.284Z,1.80
2023-01-17T08:05:26.186Z,1.70
2023-01-17T08:07:52.838Z,1.80
2023-01-17T08:10:19.930Z,1.80
2023-01-17T08:12:50.185Z,1.60
2023-01-17T08:15:18.542Z,1.30
2023-01-17T08:17:49.923Z,1.20
2023-01-17T08:20:16.807Z,1.30
2023-01-17T08:22:43.541Z,1.30
2023-01-17T08:25:10.301Z,1.40
2023-01-17T08:27:37.097Z,1.40
2023-01-17T08:30:04.811Z,1.50
2023-01-17T08:32:31.553Z,1.40
2023-01-17T08:34:58.194Z,1.50
2023-01-17T08:37:25.184Z,1.50
2023-01-17T08:39:51.897Z,1.60
2023-01-17T08:42:18.595Z,1.60
2023-01-17T08:44:45.199Z,1.70
2023-01-17T08:47:11.943Z,1.80
2023-01-17T08:49:38.600Z,1.80
2023-01-17T08:52:05.845Z,1.80
2023-01-17T08:54:32.603Z,1.70
2023-01-17T08:56:59.429Z,1.70
2023-01-17T08:59:26.143Z,1.70
2023-01-17T09:01:54.385Z,1.80
2023-01-17T09:04:21.199Z,1.80
2023-01-17T09:06:48.420Z,1.90
2023-01-17T09:09:18.113Z,2.10
2023-01-17T09:11:44.800Z,2.30
2023-01-17T09:14:12.698Z,2.40
2023-01-17T09:16:39.398Z,2.50
2023-01-17T09:19:06.097Z,2.50
2023-01-17T09:21:32.902Z,2.70
2023-01-17T09:23:59.576Z,2.80
2023-01-17T09:26:28.727Z,2.90
2023-01-17T09:28:55.694Z,2.90
2023-01-17T09:31:23.440Z,2.80
2023-01-17T09:33:51.492Z,2.80
2023-01-17T09:36:18.512Z,2.80
2023-01-17T09:38:45.376Z,2.90
2023-01-17T09:41:51.063Z,3.00
2023-01-17T09:44:25.989Z,3.00
2023-01-17T09:46:55.805Z,3.20
2023-01-17T09:49:41.735Z,3.30
2023-01-17T09:52:13.366Z,3.40
2023-01-17T09:54:41.949Z,3.40
2023-01-17T09:57:42.665Z,3.50
2023-01-17T10:00:40.745Z,3.60
2023-01-17T10:03:49.447Z,3.70
2023-01-17T10:06:24.641Z,3.80
2023-01-17T10:09:17.422Z,3.80
2023-01-17T10:12:02.908Z,3.70
2023-01-17T10:14:48.470Z,3.60
2023-01-17T10:17:20.933Z,3.50
2023-01-17T10:20:21.378Z,3.60
2023-01-17T10:23:17.997Z,3.70
2023-01-17T10:25:53.514Z,3.70
2023-01-17T10:28:23.208Z,3.80
2023-01-17T10:30:58.011Z,3.70
2023-01-17T10:33:29.175Z,3.70
2023-01-17T10:36:03.649Z,3.90
2023-01-17T10:38:36.555Z,4.00
2023-01-17T10:41:15.750Z,4.00
2023-01-17T10:44:03.941Z,4.00
2023-01-17T10:46:47.057Z,4.00
2023-01-17T10:49:23.266Z,3.90
2023-01-17T10:52:00.078Z,3.90
2023-01-17T10:54:51.384Z,3.90
2023-01-17T10:57:23.957Z,3.70
2023-01-17T10:59:51.431Z,3.90
2023-01-17T11:02:23.943Z,4.00
2023-01-17T11:04:55.647Z,4.10
2023-01-17T11:07:25.295Z,4.10
2023-01-17T11:09:56.840Z,4.00
2023-01-17T11:12:39.504Z,3.90
2023-01-17T11:15:09.133Z,3.90
2023-01-17T11:17:39.254Z,4.00
2023-01-17T11:20:14.904Z,4.20
2023-01-17T11:22:45.878Z,4.20
2023-01-17T11:25:23.230Z,4.30
2023-01-17T11:28:08.193Z,4.30
2023-01-17T11:30:34.994Z,4.40
2023-01-17T11:33:06.061Z,4.30
2023-01-17T11:35:37.593Z,4.10
2023-01-17T11:38:06.161Z,4.10
2023-01-17T11:40:43.865Z,4.00
2023-01-17T11:43:26.460Z,4.20
2023-01-17T11:46:05.352Z,4.30
2023-01-17T11:48:38.033Z,4.30
2023-01-17T11:51:18.174Z,4.40
2023-01-17T11:53:48.123Z,4.40
2023-01-17T11:56:36.613Z,4.40
2023-01-17T11:59:21.781Z,4.40
2023-01-17T12:02:01.462Z,4.60
2023-01-17T12:04:36.384Z,4.70
2023-01-17T12:07:29.011Z,4.80
2023-01-17T12:10:19.614Z,5.00
2023-01-17T12:13:38.018Z,5.00
2023-01-17T12:16:26.357Z,5.00
2023-01-17T12:19:04.707Z,4.90
2023-01-17T12:21:42.122Z,4.90
2023-01-17T12:24:35.095Z,5.00
2023-01-17T12:27:16.347Z,5.10
2023-01-17T12:29:49.817Z,5.10
2023-01-17T12:32:45.448Z,5.10
2023-01-17T12:35:17.645Z,5.10
2023-01-17T12:37:57.463Z,4.70
2023-01-17T12:40:42.680Z,4.60
2023-01-17T12:43:18.446Z,4.80
2023-01-17T12:45:48.070Z,4.80
2023-01-17T12:48:23.098Z,4.50
2023-01-17T12:50:59.321Z,4.70
2023-01-17T12:53:48.153Z,4.90
2023-01-17T12:56:24.756Z,4.90
2023-01-17T12:59:12.524Z,4.90
2023-01-17T13:01:43.097Z,4.80
2023-01-17T13:04:25.575Z,4.70
2023-01-17T13:07:04.632Z,4.40
2023-01-17T13:09:41.041Z,4.50
2023-01-17T13:12:12.884Z,4.40
2023-01-17T13:14:39.638Z,4.40
2023-01-17T13:17:34.010Z,4.40
2023-01-17T13:20:14.653Z,4.30
2023-01-17T13:22:43.150Z,4.50
2023-01-17T13:25:45.047Z,4.60
2023-01-17T13:28:46.429Z,4.80
2023-01-17T13:31:39.040Z,4.80
2023-01-17T13:34:05.659Z,4.70
2023-01-17T13:36:53.807Z,4.80
2023-01-17T13:39:29.998Z,4.60
2023-01-17T13:42:28.223Z,4.70
2023-01-17T13:44:56.146Z,4.80
2023-01-17T13:47:25.727Z,4.60
2023-01-17T13:49:56.296Z,4.40
2023-01-17T13:52:25.709Z,4.40
2023-01-17T13:55:04.332Z,4.40
2023-01-17T13:57:39.998Z,4.00
2023-01-17T14:00:21.131Z,3.90
2023-01-17T14:02:49.528Z,3.90
2023-01-17T14:05:23.973Z,3.90
2023-01-17T14:08:02.213Z,3.90
2023-01-17T14:10:41.022Z,3.90
2023-01-17T14:13:36.951Z,3.90
2023-01-17T14:16:23.910Z,4.00
2023-01-17T14:18:52.118Z,4.10
2023-01-17T14:21:33.468Z,4.20
2023-01-17T14:24:05.343Z,4.30
2023-01-17T14:26:41.044Z,4.40
2023-01-17T14:29:45.176Z,4.40
2023-01-17T14:32:14.676Z,4.50
2023-01-17T14:34:44.115Z,4.30
2023-01-17T14:37:22.044Z,4.30
2023-01-17T14:39:50.683Z,4.20
2023-01-17T14:42:20.915Z,4.30
2023-01-17T14:44:51.494Z,4.30
2023-01-17T14:47:18.757Z,4.20
2023-01-17T14:49:45.426Z,4.20
2023-01-17T14:52:17.874Z,4.30
2023-01-17T14:54:51.945Z,4.00
2023-01-17T14:57:29.393Z,4.00
2023-01-17T15:00:21.252Z,4.00
2023-01-17T15:02:48.997Z,4.00
2023-01-17T15:05:18.173Z,4.00
2023-01-17T15:07:48.523Z,4.00
2023-01-17T15:10:18.609Z,4.00
2023-01-17T15:12:48.175Z,3.80
2023-01-17T15:15:44.396Z,3.80
2023-01-17T15:18:13.905Z,3.80
2023-01-17T15:20:53.263Z,3.70
2023-01-17T15:23:22.548Z,3.70
2023-01-17T15:25:52.112Z,3.70
2023-01-17T15:28:18.916Z,3.50
2023-01-17T15:31:13.491Z,3.50
2023-01-17T15:33:46.989Z,3.50
2023-01-17T15:36:33.037Z,3.50
2023-01-17T15:39:07.086Z,3.20
2023-01-17T15:41:35.697Z,3.10
2023-01-17T15:44:02.742Z,3.20
2023-01-17T15:46:31.969Z,3.20
2023-01-17T15:49:22.754Z,3.20
2023-01-17T15:51:51.663Z,3.20
2023-01-17T15:54:26.785Z,3.20
2023-01-17T15:57:18.038Z,3.10
2023-01-17T15:59:46.686Z,3.20
2023-01-17T16:02:32.090Z,3.20
2023-01-17T16:05:00.353Z,3.20
2023-01-17T16:07:35.266Z,3.20
2023-01-17T16:10:16.380Z,3.10
2023-01-17T16:12:43.044Z,3.10
2023-01-17T16:15:13.044Z,3.00
2023-01-17T16:17:42.867Z,2.80
2023-01-17T16:20:15.861Z,2.80
2023-01-17T16:22:43.849Z,2.80
2023-01-17T16:25:32.376Z,2.90
2023-01-17T16:27:59.927Z,2.80
2023-01-17T16:30:27.450Z,2.80
2023-01-17T16:32:56.425Z,2.80
2023-01-17T16:35:28.131Z,2.80
2023-01-17T16:38:06.596Z,2.80
2023-01-17T16:40:38.951Z,2.80
2023-01-17T16:43:05.619Z,2.70
2023-01-17T16:45:40.775Z,2.70
2023-01-17T16:48:08.398Z,2.80
2023-01-17T16:50:35.066Z,2.70
2023-01-17T16:53:01.702Z,2.70
2023-01-17T16:55:28.387Z,2.40
2023-01-17T16:57:58.120Z,2.40
2023-01-17T17:00:26.608Z,2.40
2023-01-17T17:02:53.762Z,2.40
2023-01-17T17:05:20.524Z,2.40
2023-01-17T17:07:50.792Z,2.40
2023-01-17T17:10:20.266Z,2.50
2023-01-17T17:12:47.570Z,2.60
2023-01-17T17:15:14.677Z,2.60
2023-01-17T17:17:43.155Z,2.60
2023-01-17T17:20:12.884Z,2.40
2023-01-17T17:22:40.671Z,2.50
2023-01-17T17:25:07.730Z,2.50
2023-01-17T17:27:34.466Z,2.40
2023-01-17T17:30:01.146Z,2.40
2023-01-17T17:32:28.078Z,2.40
2023-01-17T17:34:54.750Z,2.50
2023-01-17T17:37:23.399Z,2.40
2023-01-17T17:39:50.027Z,2.40
2023-01-17T17:42:16.646Z,2.40
2023-01-17T17:44:43.249Z,2.50
2023-01-17T17:47:12.678Z,2.50
2023-01-17T17:49:39.697Z,2.40
2023-01-17T17:52:07.564Z,2.50
2023-01-17T17:54:34.501Z,2.50
2023-01-17T17:57:01.353Z,2.40
2023-01-17T17:59:28.000Z,2.40
2023-01-17T18:01:54.678Z,2.50
2023-01-17T18:04:22.013Z,2.50
2023-01-17T18:06:48.730Z,2.50
2023-01-17T18:09:15.462Z,2.50
2023-01-17T18:11:43.701Z,2.50
2023-01-17T18:14:13.700Z,2.40
2023-01-17T18:16:43.624Z,2.40
2023-01-17T18:19:28.427Z,2.40
2023-01-17T18:21:55.452Z,2.40
2023-01-17T18:24:24.705Z,2.40
2023-01-17T18:26:53.857Z,2.30
2023-01-17T18:29:21.883Z,2.30
2023-01-17T18:31:50.357Z,2.30
2023-01-17T18:34:23.025Z,2.30
2023-01-17T18:36:50.470Z,2.30
2023-01-17T18:39:20.295Z,2.20
2023-01-17T18:41:48.955Z,2.20
2023-01-17T18:44:15.699Z,2.20
2023-01-17T18:46:43.130Z,2.20
2023-01-17T18:49:15.386Z,2.20
2023-01-17T18:51:46.379Z,2.20
2023-01-17T18:54:13.292Z,2.10
2023-01-17T18:56:39.956Z,2.10
2023-01-17T18:59:07.085Z,2.10
2023-01-17T19:01:36.067Z,2.10
2023-01-17T19:04:04.791Z,2.10
2023-01-17T19:06:34.287Z,2.10
2023-01-17T19:09:01.792Z,2.00
2023-01-17T19:11:28.921Z,2.10
2023-01-17T19:13:56.486Z,2.10
2023-01-17T19:16:30.356Z,2.10
2023-01-17T19:19:01.583Z,2.00
2023-01-17T19:21:29.005Z,2.00
2023-01-17T19:23:57.086Z,2.00
2023-01-17T19:26:25.012Z,2.00
2023-01-17T19:28:52.013Z,2.00
2023-01-17T19:31:22.304Z,2.10
2023-01-17T19:33:51.178Z,2.10
2023-01-17T19:36:23.498Z,2.10
2023-01-17T19:39:03.548Z,2.20
2023-01-17T19:41:32.909Z,2.20
2023-01-17T19:44:05.354Z,2.20
2023-01-17T19:46:32.459Z,2.30
2023-01-17T19:48:59.865Z,2.10
2023-01-17T19:51:27.113Z,2.20
2023-01-17T19:53:54.509Z,2.20
2023-01-17T19:56:24.492Z,2.30
2023-01-17T19:58:52.081Z,2.30
2023-01-17T20:01:25.060Z,2.20
2023-01-17T20:03:52.053Z,2.10
2023-01-17T20:06:21.274Z,2.30
2023-01-17T20:08:48.759Z,2.30
2023-01-17T20:11:21.455Z,2.40
2023-01-17T20:13:51.339Z,2.30
2023-01-17T20:16:18.236Z,2.20
2023-01-17T20:18:45.631Z,2.20
2023-01-17T20:21:23.906Z,2.20
2023-01-17T20:23:51.931Z,2.20
2023-01-17T20:26:24.875Z,2.10
2023-01-17T20:28:52.197Z,1.90
2023-01-17T20:31:24.462Z,1.90
2023-01-17T20:33:54.076Z,2.00
2023-01-17T20:36:23.551Z,2.10
2023-01-17T20:38:50.549Z,2.10
2023-01-17T20:41:25.799Z,2.00
2023-01-17T20:43:55.918Z,2.00
2023-01-17T20:46:26.009Z,1.90
2023-01-17T20:48:54.759Z,2.00
2023-01-17T20:51:22.826Z,2.10
2023-01-17T20:53:55.954Z,2.10
2023-01-17T20:56:23.229Z,1.90
2023-01-17T20:58:51.839Z,2.00
2023-01-17T21:01:19.404Z,2.00
2023-01-17T21:03:47.906Z,2.00
2023-01-17T21:06:14.867Z,2.10
2023-01-17T21:08:43.450Z,1.90
2023-01-17T21:11:12.438Z,2.10
2023-01-17T21:13:39.601Z,2.20
2023-01-17T21:16:08.132Z,2.10
2023-01-17T21:18:35.420Z,2.10
2023-01-17T21:21:08.006Z,2.00
2023-01-17T21:23:35.914Z,2.10
2023-01-17T21:26:03.628Z,2.10
2023-01-17T21:28:33.419Z,2.20
2023-01-17T21:31:00.362Z,2.00
2023-01-17T21:33:29.327Z,1.80
2023-01-17T21:36:05.493Z,1.90
2023-01-17T21:38:32.817Z,1.90
2023-01-17T21:40:59.512Z,1.80
2023-01-17T21:43:26.297Z,1.90
2023-01-17T21:45:53.381Z,2.00
2023-01-17T21:48:20.357Z,2.00
2023-01-17T21:50:47.375Z,2.00
2023-01-17T21:53:14.101Z,2.00
2023-01-17T21:55:59.544Z,2.00
2023-01-17T21:58:44.589Z,1.80
2023-01-17T22:01:18.258Z,1.80
2023-01-17T22:03:49.196Z,1.80
2023-01-17T22:06:16.070Z,1.70
2023-01-17T22:08:43.376Z,1.70
2023-01-17T22:11:13.573Z,1.80
2023-01-17T22:13:42.199Z,1.90
2023-01-17T22:16:12.190Z,1.60
2023-01-17T22:18:39.882Z,1.70
2023-01-17T22:21:11.960Z,1.70
2023-01-17T22:23:39.503Z,1.80
2023-01-17T22:26:09.666Z,1.80
2023-01-17T22:28:37.945Z,1.70
2023-01-17T22:31:10.574Z,1.80
2023-01-17T22:33:38.929Z,1.70
2023-01-17T22:36:06.167Z,1.70
2023-01-17T22:38:33.852Z,1.60
2023-01-17T22:41:07.898Z,1.60
2023-01-17T22:43:37.226Z,1.60
2023-01-17T22:46:05.813Z,1.70
2023-01-17T22:48:34.499Z,1.70
2023-01-17T22:51:03.360Z,1.70
2023-01-17T22:53:30.789Z,1.80
2023-01-17T22:56:02.344Z,1.70
2023-01-17T22:58:29.818Z,1.80
2023-01-17T23:01:06.843Z,1.80
2023-01-17T23:03:34.704Z,1.80
2023-01-17T23:06:12.514Z,1.80
2023-01-17T23:08:41.169Z,1.80
2023-01-17T23:11:38.744Z,1.80
2023-01-17T23:14:06.069Z,1.80
2023-01-17T23:16:52.965Z,1.80
2023-01-17T23:19:22.613Z,1.80
2023-01-17T23:22:12.851Z,1.80
2023-01-17T23:24:43.167Z,1.70
2023-01-17T23:27:31.223Z,1.80
2023-01-17T23:29:58.264Z,1.80
2023-01-17T23:32:25.504Z,1.80
2023-01-17T23:34:52.286Z,1.70
2023-01-17T23:37:18.956Z,1.70
2023-01-17T23:39:45.786Z,1.70
2023-01-17T23:42:30.880Z,1.70
2023-01-17T23:44:57.540Z,1.60
2023-01-17T23:47:24.217Z,1.60
2023-01-17T23:49:50.861Z,1.60
2023-01-17T23:52:17.551Z,1.50
2023-01-17T23:54:44.207Z,1.50
2023-01-17T23:57:10.855Z,1.50
2023-01-17T23:59:37.540Z,1.50
